Time;durP1;ratioP1;P1;durP2;ratioP2;P2;SDS_P1;SDS_P2;PMS_P1;PMS_P2;Temp;Humidity;BMP_temperature;BMP_pressure;BME280_temperature;BME280_humidity;BME280_pressure;Samples;Min_cycle;Max_cycle;Signal;HPM_P1;HPM_P2
2021/08/07 00:01:50;;;;;;;;;;;;;;;11.35;71.46;101779.06;5134361;27;19930;-76
2021/08/07 00:04:17;;;;;;;;;;;;;;;11.41;71.48;101781.44;5134241;27;19927;-76
2021/08/07 00:06:44;;;;;;;;;;;;;;;11.30;72.34;101783.63;5134550;27;19923;-76
2021/08/07 00:09:10;;;;;;;;;;;;;;;11.36;71.68;101787.75;5134375;27;19930;-76
2021/08/07 00:11:37;;;;;;;;;;;;;;;11.25;72.59;101786.44;5134496;27;19927;-76
2021/08/07 00:14:03;;;;;;;;;;;;;;;11.24;72.31;101782.13;5133949;27;19923;-76
2021/08/07 00:16:31;;;;;;;;;;;;;;;11.33;71.59;101786.97;5134542;27;19923;-76
2021/08/07 00:18:58;;;;;;;;;;;;;;;11.33;71.70;101780.91;5134082;27;19930;-76
2021/08/07 00:21:24;;;;;;;;;;;;;;;11.47;71.79;101783.75;5134108;27;19927;-76
2021/08/07 00:23:51;;;;;;;;;;;;;;;11.27;72.71;101800.22;5134451;27;19938;-76
2021/08/07 00:26:18;;;;;;;;;;;;;;;11.27;73.08;101792.41;5134232;27;19934;-77
2021/08/07 00:28:44;;;;;;;;;;;;;;;11.34;72.37;101793.00;5134165;27;19930;-77
2021/08/07 00:31:11;;;;;;;;;;;;;;;11.30;72.08;101789.69;5133596;27;19923;-76
2021/08/07 00:33:39;;;;;;;;;;;;;;;11.30;72.47;101794.91;5134013;27;20312;-76
2021/08/07 00:36:05;;;;;;;;;;;;;;;11.30;72.52;101796.66;5133950;27;19930;-77
2021/08/07 00:38:32;;;;;;;;;;;;;;;11.23;72.64;101793.47;5134134;27;19923;-76
2021/08/07 00:40:59;;;;;;;;;;;;;;;11.17;72.55;101804.13;5133557;27;19924;-76
2021/08/07 00:43:25;;;;;;;;;;;;;;;11.23;71.51;101801.28;5133946;27;19938;-76
2021/08/07 00:45:52;;;;;;;;;;;;;;;11.35;70.40;101799.91;5133621;27;20269;-76
2021/08/07 00:48:18;;;;;;;;;;;;;;;11.15;72.37;101805.09;5133688;27;19931;-77
2021/08/07 00:50:47;;;;;;;;;;;;;;;11.10;72.44;101800.94;5133912;27;19923;-77
2021/08/07 00:53:14;;;;;;;;;;;;;;;11.06;71.90;101801.94;5133405;27;20297;-76
2021/08/07 00:55:41;;;;;;;;;;;;;;;11.20;71.12;101801.41;5133991;27;19995;-76
2021/08/07 00:58:07;;;;;;;;;;;;;;;11.15;71.72;101798.16;5133120;27;19931;-77
2021/08/07 01:00:34;;;;;;;;;;;;;;;11.04;72.10;101798.56;5133974;27;19923;-77
2021/08/07 01:03:03;;;;;;;;;;;;;;;11.08;72.05;101796.69;5133290;27;20292;-77
2021/08/07 01:05:33;;;;;;;;;;;;;;;11.00;72.24;101806.56;5133364;27;19924;-77
2021/08/07 01:08:06;;;;;;;;;;;;;;;11.20;70.96;101810.97;5133381;28;19923;-77
2021/08/07 01:10:37;;;;;;;;;;;;;;;11.04;72.29;101806.38;5133438;28;19923;-76
2021/08/07 01:13:05;;;;;;;;;;;;;;;11.10;71.65;101807.91;5133214;28;19930;-77
2021/08/07 01:15:34;;;;;;;;;;;;;;;11.05;71.86;101802.88;5133359;28;20293;-77
2021/08/07 01:18:03;;;;;;;;;;;;;;;11.07;71.25;101808.00;5133440;28;19931;-77
2021/08/07 01:20:33;;;;;;;;;;;;;;;10.97;72.58;101807.56;5133551;28;19924;-77
2021/08/07 01:23:02;;;;;;;;;;;;;;;10.95;72.34;101803.31;5132953;28;19924;-77
2021/08/07 01:25:37;;;;;;;;;;;;;;;10.80;73.53;101803.00;5133611;28;19934;-76
2021/08/07 01:28:05;;;;;;;;;;;;;;;10.74;73.73;101804.97;5133061;28;19930;-77
2021/08/07 01:30:32;;;;;;;;;;;;;;;10.93;73.16;101799.91;5133440;28;19924;-77
2021/08/07 01:32:59;;;;;;;;;;;;;;;10.94;72.98;101799.84;5133261;28;19935;-76
2021/08/07 01:35:26;;;;;;;;;;;;;;;10.98;73.29;101801.41;5133210;28;20389;-77
2021/08/07 01:37:53;;;;;;;;;;;;;;;10.77;73.62;101805.72;5133223;28;19923;-77
2021/08/07 01:40:19;;;;;;;;;;;;;;;10.82;73.75;101803.78;5133447;28;19930;-77
2021/08/07 01:42:46;;;;;;;;;;;;;;;10.47;75.56;101802.53;5133035;28;19938;-77
2021/08/07 01:45:14;;;;;;;;;;;;;;;10.37;76.22;101807.22;5133272;28;19927;-77
2021/08/07 01:47:42;;;;;;;;;;;;;;;10.41;75.96;101808.81;5133359;28;19931;-76
2021/08/07 01:50:13;;;;;;;;;;;;;;;10.38;75.53;101811.53;5133022;28;20030;-77
2021/08/07 01:52:42;;;;;;;;;;;;;;;10.62;74.79;101801.94;5133197;28;19930;-77
2021/08/07 01:55:11;;;;;;;;;;;;;;;10.70;74.35;101806.88;5132732;28;19976;-77
2021/08/07 01:57:41;;;;;;;;;;;;;;;10.75;74.30;101812.75;5133217;28;19927;-77
2021/08/07 02:00:12;;;;;;;;;;;;;;;10.60;75.46;101816.78;5132943;28;20369;-77
2021/08/07 02:02:40;;;;;;;;;;;;;;;10.75;74.48;101817.09;5132995;28;19927;-77
2021/08/07 02:05:08;;;;;;;;;;;;;;;10.61;74.98;101822.81;5132573;28;19931;-77
2021/08/07 02:07:35;;;;;;;;;;;;;;;10.57;75.26;101811.69;5133113;28;19924;-77
2021/08/07 02:10:03;;;;;;;;;;;;;;;10.77;74.35;101816.13;5132625;28;19923;-77
2021/08/07 02:12:30;;;;;;;;;;;;;;;10.78;74.29;101816.97;5132762;27;19931;-77
2021/08/07 02:14:58;;;;;;;;;;;;;;;10.66;75.57;101820.88;5135520;27;19931;-77
2021/08/07 02:17:25;;;;;;;;;;;;;;;10.59;75.70;101820.28;5136515;27;20370;-77
2021/08/07 02:19:53;;;;;;;;;;;;;;;10.61;75.04;101820.22;5136799;27;19930;-77
2021/08/07 02:22:20;;;;;;;;;;;;;;;10.72;74.65;101823.28;5136311;27;19924;-77
2021/08/07 02:24:47;;;;;;;;;;;;;;;10.67;74.79;101822.59;5136686;27;19923;-77
2021/08/07 02:27:13;;;;;;;;;;;;;;;10.87;73.93;101827.88;5136354;27;19938;-77
2021/08/07 02:29:41;;;;;;;;;;;;;;;10.76;74.09;101826.59;5136343;27;19923;-77
2021/08/07 02:32:08;;;;;;;;;;;;;;;10.89;73.46;101822.59;5135848;27;19924;-77
2021/08/07 02:34:35;;;;;;;;;;;;;;;10.94;73.66;101827.63;5136532;27;19935;-77
2021/08/07 02:37:03;;;;;;;;;;;;;;;10.98;73.65;101826.63;5135802;27;20377;-77
2021/08/07 02:39:30;;;;;;;;;;;;;;;10.82;74.31;101834.19;5136371;27;19930;-77
2021/08/07 02:41:57;;;;;;;;;;;;;;;10.92;74.89;101834.66;5135730;27;19923;-77
2021/08/07 02:44:24;;;;;;;;;;;;;;;10.94;74.69;101831.09;5136426;27;19930;-77
2021/08/07 02:46:50;;;;;;;;;;;;;;;10.78;75.72;101832.59;5136255;27;19923;-77
2021/08/07 02:49:17;;;;;;;;;;;;;;;10.83;75.25;101828.06;5136188;27;20034;-77
2021/08/07 02:51:44;;;;;;;;;;;;;;;10.73;75.18;101830.16;5135693;27;19924;-77
2021/08/07 02:54:12;;;;;;;;;;;;;;;10.66;75.65;101828.69;5135563;27;19931;-77
2021/08/07 02:56:39;;;;;;;;;;;;;;;10.73;75.14;101829.31;5135728;27;19927;-77
2021/08/07 02:59:05;;;;;;;;;;;;;;;10.78;74.58;101835.19;5135505;27;20503;-77
2021/08/07 03:01:32;;;;;;;;;;;;;;;10.74;75.30;101834.47;5135897;27;19931;-77
2021/08/07 03:03:58;;;;;;;;;;;;;;;10.74;75.56;101831.00;5135071;27;20090;-77
2021/08/07 03:06:27;;;;;;;;;;;;;;;10.77;75.31;101831.75;5135073;27;21228;-77
2021/08/07 03:08:54;;;;;;;;;;;;;;;10.85;75.04;101834.06;5135776;27;19931;-78
2021/08/07 03:11:22;;;;;;;;;;;;;;;11.04;74.43;101835.00;5135408;27;19930;-77
2021/08/07 03:13:49;;;;;;;;;;;;;;;11.14;73.84;101830.28;5135940;27;19934;-77
2021/08/07 03:16:15;;;;;;;;;;;;;;;11.18;74.41;101838.84;5135030;27;19923;-77
2021/08/07 03:18:42;;;;;;;;;;;;;;;11.11;74.77;101839.06;5135433;27;20377;-78
2021/08/07 03:21:09;;;;;;;;;;;;;;;11.34;73.82;101839.91;5135335;27;19928;-77
2021/08/07 03:23:35;;;;;;;;;;;;;;;11.59;71.78;101844.13;5135304;27;19923;-77
2021/08/07 03:26:02;;;;;;;;;;;;;;;11.62;72.12;101844.00;5134738;27;19930;-78
2021/08/07 03:28:30;;;;;;;;;;;;;;;11.62;72.95;101839.63;5135442;27;19950;-77
2021/08/07 03:30:56;;;;;;;;;;;;;;;11.63;72.96;101837.84;5135084;27;19924;-78
2021/08/07 03:33:23;;;;;;;;;;;;;;;11.63;73.10;101843.91;5134965;27;19930;-78
2021/08/07 03:35:50;;;;;;;;;;;;;;;11.70;72.52;101850.56;5135258;27;19930;-77
2021/08/07 03:38:16;;;;;;;;;;;;;;;11.84;71.17;101849.97;5134588;27;19923;-77
2021/08/07 03:40:43;;;;;;;;;;;;;;;11.78;72.93;101851.09;5134910;27;19938;-77
2021/08/07 03:43:09;;;;;;;;;;;;;;;11.66;72.89;101850.75;5134604;27;20409;-77
2021/08/07 03:45:37;;;;;;;;;;;;;;;11.62;73.72;101850.03;5134832;27;19924;-77
2021/08/07 03:48:04;;;;;;;;;;;;;;;11.62;73.63;101847.44;5134345;27;20411;-78
2021/08/07 03:50:31;;;;;;;;;;;;;;;11.58;73.57;101845.84;5135021;27;19992;-77
2021/08/07 03:52:57;;;;;;;;;;;;;;;11.51;74.20;101847.06;5134656;27;20293;-77
2021/08/07 03:55:25;;;;;;;;;;;;;;;11.71;74.11;101856.63;5134785;27;19924;-77
2021/08/07 03:57:52;;;;;;;;;;;;;;;11.89;72.42;101845.44;5134870;27;20014;-77
2021/08/07 04:00:20;;;;;;;;;;;;;;;11.92;72.52;101847.94;5134955;27;19927;-77
2021/08/07 04:02:48;;;;;;;;;;;;;;;11.82;74.03;101851.81;5134329;27;19923;-77
2021/08/07 04:05:14;;;;;;;;;;;;;;;11.81;75.24;101852.72;5133998;27;19923;-77
2021/08/07 04:07:41;;;;;;;;;;;;;;;12.07;72.35;101845.56;5134798;27;19923;-77
2021/08/07 04:10:08;;;;;;;;;;;;;;;12.12;72.61;101847.03;5133985;27;19930;-77
2021/08/07 04:12:35;;;;;;;;;;;;;;;12.16;72.17;101850.38;5134222;27;19928;-77
2021/08/07 04:15:01;;;;;;;;;;;;;;;12.15;73.73;101854.75;5134305;27;19958;-77
2021/08/07 04:17:28;;;;;;;;;;;;;;;12.29;72.39;101848.91;5134089;27;19930;-78
2021/08/07 04:19:56;;;;;;;;;;;;;;;12.33;73.00;101855.69;5134234;27;19930;-77
2021/08/07 04:22:23;;;;;;;;;;;;;;;12.27;73.61;101857.72;5134323;27;19931;-77
2021/08/07 04:24:49;;;;;;;;;;;;;;;12.34;73.30;101853.94;5134371;27;19933;-77
2021/08/07 04:27:17;;;;;;;;;;;;;;;12.36;73.67;101855.56;5133788;27;19923;-77
2021/08/07 04:29:43;;;;;;;;;;;;;;;12.62;71.20;101854.38;5133902;27;20381;-77
2021/08/07 04:32:10;;;;;;;;;;;;;;;12.72;70.55;101852.19;5133488;27;19927;-78
2021/08/07 04:34:37;;;;;;;;;;;;;;;12.75;72.12;101851.19;5133951;27;20381;-77
2021/08/07 04:37:05;;;;;;;;;;;;;;;12.81;72.15;101848.28;5133521;27;19923;-77
2021/08/07 04:39:31;;;;;;;;;;;;;;;12.82;70.69;101842.16;5134135;27;19931;-77
2021/08/07 04:41:58;;;;;;;;;;;;;;;12.93;71.67;101842.50;5133543;27;19923;-77
2021/08/07 04:44:24;;;;;;;;;;;;;;;13.20;70.21;101848.13;5133986;27;19923;-77
2021/08/07 04:46:51;;;;;;;;;;;;;;;13.12;70.68;101838.97;5133671;27;19930;-77
2021/08/07 04:49:17;;;;;;;;;;;;;;;13.31;69.43;101838.94;5133699;27;20399;-77
2021/08/07 04:51:44;;;;;;;;;;;;;;;13.37;69.73;101841.28;5133818;27;19931;-77
2021/08/07 04:54:12;;;;;;;;;;;;;;;13.42;70.57;101840.13;5133368;27;19931;-77
2021/08/07 04:56:39;;;;;;;;;;;;;;;13.65;68.63;101843.38;5133613;27;19924;-77
2021/08/07 04:59:05;;;;;;;;;;;;;;;13.72;68.84;101845.59;5133510;27;19923;-77
2021/08/07 05:01:32;;;;;;;;;;;;;;;13.83;68.24;101834.56;5133676;27;19924;-77
2021/08/07 05:03:59;;;;;;;;;;;;;;;14.08;66.73;101843.78;5133070;27;19930;-77
2021/08/07 05:06:25;;;;;;;;;;;;;;;14.24;66.11;101846.44;5133512;27;20400;-77
2021/08/07 05:08:52;;;;;;;;;;;;;;;14.42;64.86;101845.44;5133632;27;19923;-77
2021/08/07 05:11:20;;;;;;;;;;;;;;;14.63;64.53;101840.84;5133660;28;19923;-77
2021/08/07 05:13:46;;;;;;;;;;;;;;;14.76;65.01;101843.63;5133299;28;20400;-77
2021/08/07 05:16:13;;;;;;;;;;;;;;;14.92;63.99;101843.63;5133442;28;19934;-77
2021/08/07 05:18:40;;;;;;;;;;;;;;;14.98;62.96;101840.66;5133373;28;20382;-77
2021/08/07 05:21:06;;;;;;;;;;;;;;;15.03;64.53;101841.25;5133316;28;19946;-77
2021/08/07 05:23:33;;;;;;;;;;;;;;;14.89;66.36;101833.31;5133639;28;19924;-77
2021/08/07 05:25:59;;;;;;;;;;;;;;;14.92;65.94;101835.75;5132964;28;19931;-78
2021/08/07 05:28:27;;;;;;;;;;;;;;;14.93;65.68;101829.59;5133241;28;20297;-77
2021/08/07 05:30:54;;;;;;;;;;;;;;;14.97;65.91;101824.06;5132991;28;19938;-77
2021/08/07 05:33:20;;;;;;;;;;;;;;;14.99;65.32;101824.84;5133362;28;19927;-78
2021/08/07 05:35:47;;;;;;;;;;;;;;;15.21;63.32;101823.63;5133130;28;19996;-78
2021/08/07 05:38:14;;;;;;;;;;;;;;;15.42;62.23;101818.91;5133214;28;19930;-77
2021/08/07 05:40:40;;;;;;;;;;;;;;;15.49;63.13;101824.63;5133407;28;19923;-77
2021/08/07 05:43:07;;;;;;;;;;;;;;;15.57;62.25;101817.19;5132884;28;19931;-77
2021/08/07 05:45:35;;;;;;;;;;;;;;;15.78;62.02;101817.72;5133027;28;19923;-77
2021/08/07 05:48:01;;;;;;;;;;;;;;;16.06;60.35;101816.88;5132845;27;19927;-77
2021/08/07 05:50:28;;;;;;;;;;;;;;;16.38;58.27;101819.28;5137318;27;19924;-77
2021/08/07 05:52:55;;;;;;;;;;;;;;;16.64;57.87;101818.47;5136719;27;20293;-77
2021/08/07 05:55:21;;;;;;;;;;;;;;;16.64;59.47;101818.47;5137236;27;19928;-77
2021/08/07 05:57:48;;;;;;;;;;;;;;;16.80;56.84;101820.16;5136835;27;19931;-77
2021/08/07 06:00:15;;;;;;;;;;;;;;;16.89;56.97;101822.19;5136543;27;19930;-77
2021/08/07 06:02:43;;;;;;;;;;;;;;;17.02;56.73;101820.44;5136786;27;19935;-77
2021/08/07 06:05:10;;;;;;;;;;;;;;;17.23;56.19;101814.72;5136220;27;19928;-73
2021/08/07 06:07:37;;;;;;;;;;;;;;;17.27;55.76;101822.31;5136852;27;19923;-77
2021/08/07 06:10:03;;;;;;;;;;;;;;;17.18;57.12;101825.53;5136418;27;19930;-77
2021/08/07 06:12:30;;;;;;;;;;;;;;;17.34;56.17;101815.72;5136558;27;19923;-77
2021/08/07 06:14:57;;;;;;;;;;;;;;;17.26;54.23;101812.72;5136293;27;20281;-77
2021/08/07 06:17:23;;;;;;;;;;;;;;;17.12;57.33;101826.78;5136862;27;19930;-77
2021/08/07 06:19:51;;;;;;;;;;;;;;;17.38;56.89;101821.59;5136540;27;20399;-78
2021/08/07 06:22:18;;;;;;;;;;;;;;;17.29;57.51;101816.94;5136606;27;19923;-78
2021/08/07 06:24:45;;;;;;;;;;;;;;;17.28;57.94;101817.91;5136697;27;19923;-77
2021/08/07 06:27:11;;;;;;;;;;;;;;;17.55;57.25;101823.94;5136453;27;19927;-77
2021/08/07 06:29:38;;;;;;;;;;;;;;;17.53;57.37;101822.34;5136332;27;19930;-77
2021/08/07 06:32:04;;;;;;;;;;;;;;;17.59;57.14;101824.56;5136310;27;19924;-77
2021/08/07 06:34:31;;;;;;;;;;;;;;;17.73;55.65;101816.59;5136069;27;19930;-77
2021/08/07 06:36:59;;;;;;;;;;;;;;;17.83;55.01;101817.66;5136262;27;19923;-77
2021/08/07 06:39:26;;;;;;;;;;;;;;;17.81;54.93;101821.38;5136420;27;19981;-77
2021/08/07 06:41:52;;;;;;;;;;;;;;;18.00;53.61;101824.38;5136084;27;19935;-77
2021/08/07 06:44:19;;;;;;;;;;;;;;;18.24;53.19;101819.22;5136051;27;19931;-77
2021/08/07 06:46:45;;;;;;;;;;;;;;;18.36;51.93;101816.66;5136351;27;20414;-77
2021/08/07 06:49:12;;;;;;;;;;;;;;;18.52;51.08;101816.38;5135922;27;20093;-77
2021/08/07 06:51:39;;;;;;;;;;;;;;;18.64;50.87;101815.50;5135787;27;19924;-76
2021/08/07 06:54:06;;;;;;;;;;;;;;;18.82;51.93;101805.47;5135853;27;19930;-77
2021/08/07 06:56:33;;;;;;;;;;;;;;;18.89;50.03;101810.16;5136096;27;19931;-77
2021/08/07 06:59:00;;;;;;;;;;;;;;;19.02;49.75;101806.63;5135456;27;19923;-77
2021/08/07 07:01:26;;;;;;;;;;;;;;;19.22;49.93;101805.16;5135455;27;19924;-77
2021/08/07 07:03:53;;;;;;;;;;;;;;;19.40;49.52;101795.00;5135249;27;20403;-77
2021/08/07 07:06:19;;;;;;;;;;;;;;;19.46;51.12;101802.44;5135935;27;19923;-77
2021/08/07 07:08:46;;;;;;;;;;;;;;;19.64;47.48;101798.41;5135873;27;19930;-77
2021/08/07 07:11:14;;;;;;;;;;;;;;;20.06;46.29;101801.31;5135219;27;19941;-77
2021/08/07 07:13:43;;;;;;;;;;;;;;;20.14;45.23;101800.72;5135276;27;19924;-77
2021/08/07 07:16:09;;;;;;;;;;;;;;;20.56;43.90;101796.50;5135209;27;19970;-77
2021/08/07 07:18:36;;;;;;;;;;;;;;;20.62;44.25;101801.28;5135671;27;19930;-77
2021/08/07 07:21:02;;;;;;;;;;;;;;;21.39;43.25;101797.59;5135098;27;20389;-76
2021/08/07 07:23:29;;;;;;;;;;;;;;;22.63;38.79;101807.16;5135527;27;19930;-76
2021/08/07 07:25:56;;;;;;;;;;;;;;;23.41;36.10;101793.91;5135320;27;19924;-76
2021/08/07 07:28:24;;;;;;;;;;;;;;;23.73;38.30;101793.56;5135369;27;19927;-76
2021/08/07 07:30:51;;;;;;;;;;;;;;;24.42;34.86;101789.59;5135424;27;19958;-77
2021/08/07 07:33:17;;;;;;;;;;;;;;;25.20;34.39;101783.69;5134899;27;19923;-77
2021/08/07 07:35:44;;;;;;;;;;;;;;;24.85;34.55;101780.06;5135259;27;19923;-77
2021/08/07 07:38:11;;;;;;;;;;;;;;;24.85;34.15;101780.06;5135037;27;19923;-77
2021/08/07 07:40:38;;;;;;;;;;;;;;;25.72;34.18;101781.00;5134855;27;19924;-77
2021/08/07 07:43:05;;;;;;;;;;;;;;;26.54;32.50;101780.50;5134952;27;19923;-77
2021/08/07 07:45:33;;;;;;;;;;;;;;;26.14;32.39;101777.53;5135162;27;19923;-77
2021/08/07 07:47:59;;;;;;;;;;;;;;;25.90;33.36;101777.47;5134480;27;19923;-77
2021/08/07 07:50:26;;;;;;;;;;;;;;;25.13;33.57;101772.78;5134673;27;20369;-76
2021/08/07 07:52:52;;;;;;;;;;;;;;;26.31;32.16;101775.78;5134836;27;19923;-77
2021/08/07 07:55:19;;;;;;;;;;;;;;;27.11;31.67;101778.69;5134381;27;19930;-77
2021/08/07 07:57:46;;;;;;;;;;;;;;;26.87;31.50;101776.88;5134895;27;19978;-77
2021/08/07 08:00:13;;;;;;;;;;;;;;;26.63;30.56;101788.34;5134289;27;19928;-77
2021/08/07 08:02:41;;;;;;;;;;;;;;;26.97;30.34;101757.16;5134435;27;19931;-77
2021/08/07 08:05:08;;;;;;;;;;;;;;;26.78;30.71;101774.34;5133949;27;19923;-77
2021/08/07 08:07:34;;;;;;;;;;;;;;;26.59;31.95;101778.16;5134242;27;19924;-76
2021/08/07 08:10:01;;;;;;;;;;;;;;;26.62;31.79;101776.00;5134156;27;20289;-76
2021/08/07 08:12:27;;;;;;;;;;;;;;;27.33;30.34;101773.66;5133664;27;19923;-76
2021/08/07 08:14:54;;;;;;;;;;;;;;;27.75;29.86;101762.69;5134069;27;19923;-77
2021/08/07 08:17:21;;;;;;;;;;;;;;;27.89;29.08;101771.03;5134547;27;19979;-77
2021/08/07 08:19:49;;;;;;;;;;;;;;;26.43;31.07;101774.44;5134315;27;19923;-77
2021/08/07 08:22:15;;;;;;;;;;;;;;;25.39;33.71;101756.03;5134164;27;20032;-76
2021/08/07 08:24:42;;;;;;;;;;;;;;;24.94;32.59;101772.97;5134084;27;19924;-76
2021/08/07 08:27:09;;;;;;;;;;;;;;;25.10;34.50;101774.91;5134139;27;19978;-77
2021/08/07 08:29:35;;;;;;;;;;;;;;;25.85;32.93;101767.28;5133973;27;19923;-78
2021/08/07 08:32:02;;;;;;;;;;;;;;;27.13;29.56;101757.16;5133563;27;20408;-76
2021/08/07 08:34:29;;;;;;;;;;;;;;;26.99;28.84;101761.31;5133850;27;20365;-78
2021/08/07 08:36:57;;;;;;;;;;;;;;;28.15;28.10;101752.81;5133614;27;20400;-77
2021/08/07 08:39:24;;;;;;;;;;;;;;;27.24;28.43;101748.81;5133746;27;19935;-74
2021/08/07 08:41:50;;;;;;;;;;;;;;;26.62;29.72;101751.16;5133709;27;20293;-74
2021/08/07 08:44:17;;;;;;;;;;;;;;;27.73;27.89;101742.50;5133805;27;19930;-75
2021/08/07 08:46:44;;;;;;;;;;;;;;;28.75;26.26;101743.25;5133714;27;19927;-73
2021/08/07 08:49:13;;;;;;;;;;;;;;;28.43;27.59;101741.63;5133752;27;19924;-72
2021/08/07 08:51:40;;;;;;;;;;;;;;;30.38;24.88;101745.91;5133573;27;20389;-73
2021/08/07 08:54:08;;;;;;;;;;;;;;;29.50;25.29;101741.53;5133528;27;19923;-72
2021/08/07 08:56:35;;;;;;;;;;;;;;;28.66;26.13;101745.13;5133868;27;19924;-72
2021/08/07 08:59:03;;;;;;;;;;;;;;;28.82;25.68;101738.84;5133654;27;19924;-71
2021/08/07 09:01:29;;;;;;;;;;;;;;;29.65;25.19;101738.88;5133411;27;19924;-72
2021/08/07 09:03:56;;;;;;;;;;;;;;;29.62;25.65;101734.69;5133045;27;19930;-76
2021/08/07 09:06:22;;;;;;;;;;;;;;;31.05;25.82;101742.97;5133420;27;20403;-73
2021/08/07 09:08:58;;;;;;;;;;;;;;;29.89;24.62;101730.47;5133707;27;19923;-72
2021/08/07 09:11:26;;;;;;;;;;;;;;;29.98;25.83;101725.00;5133661;28;19923;-72
2021/08/07 09:14:15;;;;;;;;;;;;;;;30.62;24.62;101724.22;5133352;28;19923;-72
2021/08/07 09:17:03;;;;;;;;;;;;;;;31.44;22.78;101716.38;5133726;28;19927;-72
2021/08/07 09:19:46;;;;;;;;;;;;;;;30.03;24.30;101717.22;5133421;28;19923;-72
2021/08/07 09:22:13;;;;;;;;;;;;;;;29.61;24.68;101703.50;5133572;27;19928;-73
2021/08/07 09:24:53;;;;;;;;;;;;;;;29.52;24.36;101710.00;5137927;27;19954;-72
2021/08/07 09:27:27;;;;;;;;;;;;;;;31.31;23.26;101710.06;5137594;27;19924;-71
2021/08/07 09:29:54;;;;;;;;;;;;;;;29.69;23.41;101702.59;5137206;27;19924;-71
2021/08/07 09:32:21;;;;;;;;;;;;;;;30.02;23.76;101705.66;5137436;27;19935;-72
2021/08/07 09:35:02;;;;;;;;;;;;;;;30.29;23.98;101706.81;5137304;27;19931;-73
2021/08/07 09:37:29;;;;;;;;;;;;;;;29.49;25.34;101694.25;5137604;27;19930;-71
2021/08/07 09:39:55;;;;;;;;;;;;;;;30.83;21.87;101700.06;5137379;27;19927;-69
2021/08/07 09:42:23;;;;;;;;;;;;;;;30.62;22.16;101698.19;5137460;27;19928;-69
2021/08/07 09:45:00;;;;;;;;;;;;;;;30.52;22.95;101698.56;5137444;27;19930;-68
2021/08/07 09:47:26;;;;;;;;;;;;;;;30.71;23.50;101688.97;5137148;27;20369;-68
2021/08/07 09:49:53;;;;;;;;;;;;;;;30.74;22.80;101687.75;5137106;27;19946;-68
2021/08/07 09:52:20;;;;;;;;;;;;;;;32.17;21.29;101693.47;5137352;27;19931;-69
2021/08/07 09:54:47;;;;;;;;;;;;;;;30.99;21.78;101683.63;5136895;27;19923;-69
2021/08/07 09:57:25;;;;;;;;;;;;;;;30.37;22.78;101687.06;5136600;27;20289;-69
2021/08/07 09:59:52;;;;;;;;;;;;;;;31.64;21.66;101680.66;5137240;27;19923;-68
2021/08/07 10:02:22;;;;;;;;;;;;;;;31.22;22.13;101674.47;5136786;27;20411;-68
2021/08/07 10:04:49;;;;;;;;;;;;;;;31.41;21.41;101678.28;5136800;27;19924;-69
2021/08/07 10:07:15;;;;;;;;;;;;;;;31.80;23.19;101688.34;5136449;27;20609;-69
2021/08/07 10:09:42;;;;;;;;;;;;;;;31.95;21.13;101676.63;5136942;27;19923;-69
2021/08/07 10:12:10;;;;;;;;;;;;;;;32.62;20.03;101672.16;5136445;27;20380;-69
2021/08/07 10:14:38;;;;;;;;;;;;;;;33.73;19.11;101673.94;5136521;27;19930;-69
2021/08/07 10:17:05;;;;;;;;;;;;;;;31.79;21.32;101677.81;5136303;27;20297;-69
2021/08/07 10:19:33;;;;;;;;;;;;;;;32.53;20.60;101682.31;5136839;27;19923;-69
2021/08/07 10:22:00;;;;;;;;;;;;;;;32.20;20.00;101669.63;5136383;27;19924;-69
2021/08/07 10:24:28;;;;;;;;;;;;;;;33.01;19.71;101676.63;5136710;27;19927;-69
2021/08/07 10:26:57;;;;;;;;;;;;;;;34.55;17.76;101664.00;5136060;27;19933;-68
2021/08/07 10:29:26;;;;;;;;;;;;;;;34.73;17.74;101662.41;5136653;27;20012;-70
2021/08/07 10:31:56;;;;;;;;;;;;;;;32.38;18.51;101657.44;5136309;27;19946;-69
2021/08/07 10:34:23;;;;;;;;;;;;;;;32.95;18.32;101645.16;5135917;27;19934;-72
2021/08/07 10:36:50;;;;;;;;;;;;;;;32.85;19.35;101652.84;5136301;27;19946;-70
2021/08/07 10:39:17;;;;;;;;;;;;;;;31.32;19.46;101641.84;5135910;27;19981;-74
2021/08/07 10:41:44;;;;;;;;;;;;;;;33.36;18.53;101641.31;5136416;27;20014;-75
2021/08/07 10:44:13;;;;;;;;;;;;;;;33.50;17.62;101645.63;5135790;27;20366;-75
2021/08/07 10:46:39;;;;;;;;;;;;;;;34.03;17.35;101641.78;5136251;27;19924;-76
2021/08/07 10:49:08;;;;;;;;;;;;;;;33.28;17.41;101638.84;5136023;27;19980;-75
2021/08/07 10:51:39;;;;;;;;;;;;;;;32.51;17.17;101635.91;5136129;27;19923;-73
2021/08/07 10:54:07;;;;;;;;;;;;;;;32.74;16.73;101632.78;5135523;27;19931;-73
2021/08/07 10:56:35;;;;;;;;;;;;;;;34.79;16.88;101634.53;5135791;27;19930;-79
2021/08/07 10:59:16;;;;;;;;;;;;;;;34.35;15.88;101633.66;5135759;27;19925;-79
2021/08/07 11:01:43;;;;;;;;;;;;;;;34.72;16.32;101629.16;5135584;27;19923;-72
2021/08/07 11:04:16;;;;;;;;;;;;;;;32.61;17.00;101633.63;5135215;27;19930;-76
2021/08/07 11:06:47;;;;;;;;;;;;;;;32.25;17.08;101623.25;5135683;27;20393;-71
2021/08/07 11:09:19;;;;;;;;;;;;;;;33.32;17.29;101623.88;5135551;27;19928;-74
2021/08/07 11:11:45;;;;;;;;;;;;;;;34.04;16.55;101627.25;5135456;27;19934;-72
2021/08/07 11:14:31;;;;;;;;;;;;;;;34.36;16.36;101633.44;5135491;27;20357;-71
2021/08/07 11:17:12;;;;;;;;;;;;;;;33.65;15.41;101623.75;5135160;27;19923;-71
2021/08/07 11:19:48;;;;;;;;;;;;;;;34.02;15.58;101618.53;5134466;27;19924;-72
2021/08/07 11:22:14;;;;;;;;;;;;;;;34.42;15.59;101613.63;5135313;27;20010;-72
2021/08/07 11:24:55;;;;;;;;;;;;;;;34.50;16.18;101606.28;5135265;27;19923;-73
2021/08/07 11:27:21;;;;;;;;;;;;;;;34.66;16.10;101605.75;5135603;27;19930;-74
2021/08/07 11:30:06;;;;;;;;;;;;;;;33.78;16.30;101614.75;5135185;27;19931;-73
2021/08/07 11:32:33;;;;;;;;;;;;;;;34.46;14.70;101600.53;5134936;27;20404;-73
2021/08/07 11:35:01;;;;;;;;;;;;;;;33.76;16.75;101595.25;5135080;27;19923;-73
2021/08/07 11:37:28;;;;;;;;;;;;;;;33.75;16.95;101609.78;5135296;27;19924;-74
2021/08/07 11:40:11;;;;;;;;;;;;;;;35.37;14.31;101596.16;5135030;27;19924;-78
2021/08/07 11:42:39;;;;;;;;;;;;;;;34.32;15.99;101605.19;5134826;27;20378;-76
2021/08/07 11:45:06;;;;;;;;;;;;;;;35.10;15.41;101587.59;5134598;27;19929;-80
2021/08/07 11:47:33;;;;;;;;;;;;;;;32.74;16.96;101581.56;5133927;27;19924;-76
2021/08/07 11:50:05;;;;;;;;;;;;;;;34.75;15.40;101582.78;5134715;27;19924;-78
2021/08/07 11:52:32;;;;;;;;;;;;;;;33.48;16.76;101587.53;5135085;27;19927;-79
2021/08/07 11:54:59;;;;;;;;;;;;;;;34.32;16.04;101588.19;5134301;27;20381;-77
2021/08/07 11:57:26;;;;;;;;;;;;;;;33.66;17.16;101582.25;5134923;27;19930;-77
2021/08/07 11:59:52;;;;;;;;;;;;;;;34.09;16.09;101584.22;5134353;27;19923;-78
2021/08/07 12:02:19;;;;;;;;;;;;;;;34.54;16.21;101570.50;5134686;27;19923;-78
2021/08/07 12:05:06;;;;;;;;;;;;;;;34.25;16.61;101572.88;5134329;27;19924;-77
2021/08/07 12:07:34;;;;;;;;;;;;;;;34.53;16.27;101571.56;5134285;27;19946;-77
2021/08/07 12:10:09;;;;;;;;;;;;;;;34.76;15.59;101562.81;5134459;27;19924;-78
2021/08/07 12:12:43;;;;;;;;;;;;;;;35.13;14.91;101564.69;5134530;27;19930;-76
2021/08/07 12:15:11;;;;;;;;;;;;;;;33.99;16.99;101565.81;5134310;27;19923;-77
2021/08/07 12:17:44;;;;;;;;;;;;;;;34.77;15.63;101567.16;5134148;27;20270;-77
2021/08/07 12:20:11;;;;;;;;;;;;;;;34.04;16.49;101565.97;5134257;27;19924;-77
2021/08/07 12:25:34;;;;;;;;;;;;;;;36.08;15.39;101551.19;5130859;27;20335;-76
2021/08/07 12:28:04;;;;;;;;;;;;;;;34.12;16.76;101553.25;5130574;27;20430;-76
2021/08/07 12:30:31;;;;;;;;;;;;;;;33.37;17.51;101545.88;5131106;28;19923;-75
2021/08/07 12:33:13;;;;;;;;;;;;;;;34.71;17.02;101538.34;5130509;28;19923;-74
2021/08/07 12:35:40;;;;;;;;;;;;;;;35.09;16.26;101539.97;5130703;28;19985;-75
2021/08/07 12:38:11;;;;;;;;;;;;;;;36.34;15.68;101543.63;5130542;28;19923;-76
2021/08/07 12:40:39;;;;;;;;;;;;;;;35.82;15.27;101543.50;5130483;28;19923;-76
2021/08/07 12:43:05;;;;;;;;;;;;;;;33.46;18.07;101538.38;5129228;28;19930;-76